createdAt,value
2023-03-31T00:03:44.818Z,9.51
2023-03-31T00:08:52.403Z,9.48
2023-03-31T00:13:56.137Z,9.45
2023-03-31T00:19:02.207Z,9.40
2023-03-31T00:24:07.413Z,9.36
2023-03-31T00:29:14.033Z,9.32
2023-03-31T00:34:17.071Z,9.28
2023-03-31T00:39:20.165Z,9.26
2023-03-31T00:44:29.338Z,9.25
2023-03-31T00:49:47.495Z,9.25
2023-03-31T00:55:01.298Z,9.27
2023-03-31T01:00:16.695Z,9.27
2023-03-31T01:05:29.616Z,9.27
2023-03-31T01:10:42.240Z,9.26
2023-03-31T01:15:46.401Z,9.23
2023-03-31T01:21:39.851Z,9.22
2023-03-31T01:27:43.904Z,9.18
2023-03-31T01:33:31.188Z,9.16
2023-03-31T01:38:57.518Z,9.15
2023-03-31T01:44:18.732Z,9.14
2023-03-31T01:49:39.611Z,9.11
2023-03-31T01:54:50.765Z,9.11
2023-03-31T02:00:17.161Z,9.09
2023-03-31T02:05:31.860Z,9.08
2023-03-31T02:10:36.423Z,9.08
2023-03-31T02:16:11.305Z,9.06
2023-03-31T02:21:22.930Z,9.06
2023-03-31T02:26:34.269Z,9.07
2023-03-31T02:32:10.325Z,9.07
2023-03-31T02:37:20.915Z,9.06
2023-03-31T02:42:25.648Z,9.06
2023-03-31T02:47:31.518Z,9.05
2023-03-31T02:53:26.991Z,9.03
2023-03-31T02:58:40.737Z,9.00
2023-03-31T03:04:37.925Z,8.97
2023-03-31T03:10:12.961Z,8.94
2023-03-31T03:15:47.426Z,8.92
2023-03-31T03:21:00.136Z,8.89
2023-03-31T03:26:15.353Z,8.88
2023-03-31T03:31:26.459Z,8.87
2023-03-31T03:36:38.975Z,8.86
2023-03-31T03:41:52.898Z,8.84
2023-03-31T03:46:56.043Z,8.83
2023-03-31T03:52:10.955Z,8.82
2023-03-31T03:57:14.023Z,8.80
2023-03-31T04:02:17.205Z,8.79
2023-03-31T04:07:20.414Z,8.78
2023-03-31T04:12:26.101Z,8.76
2023-03-31T04:17:35.053Z,8.76
2023-03-31T04:22:41.489Z,8.76
2023-03-31T04:27:56.002Z,8.75
2023-03-31T04:33:02.816Z,8.74
2023-03-31T04:38:05.933Z,8.75
2023-03-31T04:43:09.162Z,8.75
2023-03-31T04:48:13.441Z,8.75
2023-03-31T04:53:16.812Z,8.79
2023-03-31T04:58:20.001Z,8.85
2023-03-31T05:03:23.252Z,8.91
2023-03-31T05:08:27.652Z,8.93
2023-03-31T05:13:36.351Z,8.96
2023-03-31T05:18:42.308Z,8.97
2023-03-31T05:24:10.732Z,8.99
2023-03-31T05:29:14.392Z,9.04
2023-03-31T05:34:17.424Z,9.11
2023-03-31T05:39:21.446Z,9.21
2023-03-31T05:44:24.382Z,9.29
2023-03-31T05:49:27.360Z,9.35
2023-03-31T05:54:30.507Z,9.41
2023-03-31T05:59:35.658Z,9.50
2023-03-31T06:04:39.040Z,9.52
2023-03-31T06:09:42.114Z,9.52
2023-03-31T06:14:45.427Z,9.55
2023-03-31T06:19:57.620Z,9.58
2023-03-31T06:25:00.569Z,9.51
2023-03-31T06:30:04.134Z,9.45
2023-03-31T06:35:07.561Z,9.41
2023-03-31T06:40:13.853Z,9.42
2023-03-31T06:45:33.177Z,9.51
2023-03-31T06:50:40.068Z,9.61
2023-03-31T06:55:42.917Z,9.66
2023-03-31T07:00:48.492Z,9.67
2023-03-31T07:05:53.672Z,9.65
2023-03-31T07:11:00.008Z,9.60
2023-03-31T07:16:05.106Z,9.59
2023-03-31T07:21:10.031Z,9.65
2023-03-31T07:26:13.468Z,9.73
2023-03-31T07:31:16.525Z,9.82
2023-03-31T07:36:19.832Z,9.83
2023-03-31T07:41:23.854Z,9.88
2023-03-31T07:46:29.336Z,9.89
2023-03-31T07:51:32.179Z,9.91
2023-03-31T07:56:35.080Z,10.06
2023-03-31T08:01:37.955Z,10.14
2023-03-31T08:06:41.399Z,10.34
2023-03-31T08:11:46.791Z,10.69
2023-03-31T08:16:51.860Z,11.05
2023-03-31T08:21:54.668Z,11.28
2023-03-31T08:26:57.708Z,11.41
2023-03-31T08:32:00.681Z,11.32
2023-03-31T08:37:05.612Z,11.17
2023-03-31T08:42:23.351Z,11.06
2023-03-31T08:47:32.463Z,11.08
2023-03-31T08:52:44.155Z,11.09
2023-03-31T08:58:17.777Z,10.98
2023-03-31T09:03:34.451Z,10.85
2023-03-31T09:08:42.108Z,10.76
2023-03-31T09:14:03.189Z,10.72
2023-03-31T09:19:20.028Z,10.70
2023-03-31T09:24:36.264Z,10.83
2023-03-31T09:29:57.553Z,10.98
2023-03-31T09:35:16.297Z,11.01
2023-03-31T09:40:24.006Z,10.83
2023-03-31T09:45:28.640Z,10.80
2023-03-31T09:50:39.680Z,10.77
2023-03-31T09:55:53.750Z,10.77
2023-03-31T10:01:16.280Z,10.83
2023-03-31T10:06:20.995Z,10.91
2023-03-31T10:11:27.356Z,11.03
2023-03-31T10:16:47.263Z,11.14
2023-03-31T10:22:16.882Z,11.23
2023-03-31T10:27:31.641Z,11.17
2023-03-31T10:32:42.956Z,11.04
2023-03-31T10:37:49.794Z,10.98
2023-03-31T10:43:21.976Z,10.94
2023-03-31T10:48:34.778Z,10.94
2023-03-31T10:53:52.569Z,11.05
2023-03-31T10:59:40.181Z,11.26
2023-03-31T11:05:25.564Z,11.52
2023-03-31T11:11:19.690Z,11.49
2023-03-31T11:16:56.633Z,11.46
2023-03-31T11:22:33.537Z,11.40
2023-03-31T11:28:09.423Z,11.54
2023-03-31T11:33:43.108Z,11.65
2023-03-31T11:39:03.777Z,11.90
2023-03-31T11:44:12.683Z,12.12
2023-03-31T11:49:23.636Z,12.48
2023-03-31T11:55:15.540Z,12.73
2023-03-31T12:00:29.244Z,13.07
2023-03-31T12:05:36.358Z,13.27
2023-03-31T12:10:52.034Z,13.34
2023-03-31T12:16:06.978Z,13.33
2023-03-31T12:21:11.455Z,13.08
2023-03-31T12:26:29.529Z,12.88
2023-03-31T12:31:33.413Z,12.74
2023-03-31T12:37:04.316Z,12.86
2023-03-31T12:42:53.816Z,13.03
2023-03-31T12:48:30.016Z,13.10
2023-03-31T12:54:00.790Z,13.22
2023-03-31T12:59:32.235Z,13.46
2023-03-31T13:04:39.576Z,13.87
2023-03-31T13:09:47.167Z,14.24
2023-03-31T13:15:00.402Z,14.78
2023-03-31T13:20:26.558Z,15.60
2023-03-31T13:25:29.404Z,16.05
2023-03-31T13:30:41.520Z,15.69
2023-03-31T13:36:10.454Z,15.40
2023-03-31T13:41:26.639Z,15.71
2023-03-31T13:47:15.532Z,15.31
2023-03-31T13:52:47.888Z,14.84
2023-03-31T13:58:35.486Z,15.25
2023-03-31T14:03:55.560Z,15.73
2023-03-31T14:09:19.283Z,15.85
2023-03-31T14:14:24.520Z,15.76
2023-03-31T14:19:42.359Z,15.34
2023-03-31T14:25:20.745Z,14.99
2023-03-31T14:30:23.644Z,15.00
2023-03-31T14:35:53.185Z,15.00
2023-03-31T14:41:00.943Z,15.24
2023-03-31T14:46:07.780Z,15.26
2023-03-31T14:51:14.052Z,14.90
2023-03-31T14:56:28.214Z,14.51
2023-03-31T15:01:40.107Z,14.20
2023-03-31T15:06:48.106Z,14.19
2023-03-31T15:12:01.708Z,14.26
2023-03-31T15:17:04.571Z,14.39
2023-03-31T15:22:20.834Z,14.62
2023-03-31T15:27:39.356Z,14.77
2023-03-31T15:32:42.900Z,14.66
2023-03-31T15:37:54.873Z,14.41
2023-03-31T15:43:25.557Z,14.13
2023-03-31T15:48:48.620Z,13.78
2023-03-31T15:53:55.055Z,13.49
2023-03-31T15:59:00.860Z,13.25
2023-03-31T16:04:10.595Z,12.97
2023-03-31T16:09:43.953Z,12.68
2023-03-31T16:15:02.923Z,12.45
2023-03-31T16:20:19.032Z,12.36
2023-03-31T16:25:26.092Z,12.32
2023-03-31T16:30:43.796Z,12.24
2023-03-31T16:35:55.956Z,12.17
2023-03-31T16:40:59.352Z,12.09
2023-03-31T16:46:04.519Z,12.01
2023-03-31T16:51:07.345Z,11.92
2023-03-31T16:56:14.821Z,11.83
2023-03-31T17:01:17.779Z,11.74
2023-03-31T17:06:20.641Z,11.66
2023-03-31T17:11:23.889Z,11.60
2023-03-31T17:16:32.958Z,11.52
2023-03-31T17:21:44.044Z,11.45
2023-03-31T17:26:46.997Z,11.38
2023-03-31T17:31:49.840Z,11.28
2023-03-31T17:36:54.848Z,11.14
2023-03-31T17:41:58.556Z,11.01
2023-03-31T17:47:01.493Z,10.84
2023-03-31T17:52:04.778Z,10.66
2023-03-31T17:57:07.941Z,10.52
2023-03-31T18:02:16.370Z,10.45
2023-03-31T18:07:19.401Z,10.40
2023-03-31T18:12:22.357Z,10.36
2023-03-31T18:17:25.383Z,10.29
2023-03-31T18:22:28.854Z,10.15
2023-03-31T18:27:31.764Z,10.02
2023-03-31T18:32:35.832Z,9.82
2023-03-31T18:37:38.778Z,9.59
2023-03-31T18:42:42.301Z,9.42
2023-03-31T18:47:45.327Z,9.21
2023-03-31T18:52:49.643Z,8.98
2023-03-31T18:57:53.147Z,8.77
2023-03-31T19:02:59.702Z,8.64
2023-03-31T19:08:03.299Z,8.67
2023-03-31T19:13:08.029Z,8.73
2023-03-31T19:18:15.444Z,8.72
2023-03-31T19:23:18.430Z,8.78
2023-03-31T19:28:24.749Z,8.90
2023-03-31T19:33:27.791Z,8.87
2023-03-31T19:38:32.742Z,8.84
2023-03-31T19:43:35.917Z,8.76
2023-03-31T19:48:38.906Z,8.68
2023-03-31T19:53:42.463Z,8.61
2023-03-31T19:58:45.879Z,8.58
2023-03-31T20:03:53.400Z,8.63
2023-03-31T20:09:00.978Z,8.67
2023-03-31T20:14:07.756Z,8.74
2023-03-31T20:19:14.170Z,8.77
2023-03-31T20:24:21.201Z,8.78
2023-03-31T20:29:26.646Z,8.77
2023-03-31T20:34:29.935Z,8.75
2023-03-31T20:39:33.836Z,8.72
2023-03-31T20:44:40.219Z,8.66
2023-03-31T20:49:44.260Z,8.60
2023-03-31T20:54:48.042Z,8.59
2023-03-31T20:59:52.114Z,8.55
2023-03-31T21:04:58.466Z,8.48
2023-03-31T21:10:02.555Z,8.40
2023-03-31T21:15:06.862Z,8.26
2023-03-31T21:20:12.769Z,8.12
2023-03-31T21:25:17.521Z,8.05
2023-03-31T21:30:22.203Z,8.06
2023-03-31T21:35:25.105Z,8.08
2023-03-31T21:40:31.048Z,8.04
2023-03-31T21:45:38.294Z,8.11
2023-03-31T21:50:41.587Z,8.16
2023-03-31T21:55:55.446Z,8.15
2023-03-31T22:01:02.835Z,8.05
2023-03-31T22:06:08.169Z,7.99
2023-03-31T22:11:12.681Z,7.92
2023-03-31T22:16:20.839Z,7.93
2023-03-31T22:21:27.582Z,7.93
2023-03-31T22:26:31.320Z,8.00
2023-03-31T22:31:37.376Z,8.09
2023-03-31T22:36:40.597Z,8.24
2023-03-31T22:41:45.007Z,8.36
2023-03-31T22:46:48.082Z,8.48
2023-03-31T22:51:54.284Z,8.49
2023-03-31T22:56:57.433Z,8.38
2023-03-31T23:02:00.570Z,8.34
2023-03-31T23:07:03.621Z,8.46
2023-03-31T23:12:06.642Z,8.54
2023-03-31T23:17:09.934Z,8.55
2023-03-31T23:22:14.221Z,8.51
2023-03-31T23:27:17.797Z,8.46
2023-03-31T23:32:21.038Z,8.47
2023-03-31T23:37:24.109Z,8.52
2023-03-31T23:42:27.408Z,8.55
2023-03-31T23:47:30.652Z,8.53
2023-03-31T23:52:36.162Z,8.47
2023-03-31T23:57:39.031Z,8.40
